createdAt,value
2022-10-13T00:00:09.642Z,101984.41
2022-10-13T00:02:11.433Z,101979.84
2022-10-13T00:04:13.271Z,101976.25
2022-10-13T00:06:18.370Z,101973.75
2022-10-13T00:08:22.088Z,101976.31
2022-10-13T00:10:24.185Z,101964.16
2022-10-13T00:12:25.919Z,101978.84
2022-10-13T00:14:27.866Z,101976.03
2022-10-13T00:16:30.863Z,101981.22
2022-10-13T00:18:32.556Z,101983.16
2022-10-13T00:20:34.895Z,101983.31
2022-10-13T00:22:36.988Z,101978.97
2022-10-13T00:24:38.680Z,101974.81
2022-10-13T00:26:40.526Z,101981.06
2022-10-13T00:28:42.607Z,101979.13
2022-10-13T00:30:44.646Z,101977.28
2022-10-13T00:32:46.535Z,101982.47
2022-10-13T00:34:48.350Z,101975.44
2022-10-13T00:36:50.054Z,101968.47
2022-10-13T00:38:52.583Z,101970.25
2022-10-13T00:40:56.291Z,101975.50
2022-10-13T00:42:57.845Z,101979.13
2022-10-13T00:45:20.280Z,101982.03
2022-10-13T00:47:22.109Z,101976.00
2022-10-13T00:49:23.817Z,101974.97
2022-10-13T00:51:29.397Z,101950.69
2022-10-13T00:53:34.569Z,101968.72
2022-10-13T00:55:39.193Z,101971.25
2022-10-13T00:57:46.755Z,101955.41
2022-10-13T00:59:49.032Z,101955.13
2022-10-13T01:01:51.693Z,101953.34
2022-10-13T01:03:53.764Z,101955.81
2022-10-13T01:05:59.272Z,101959.06
2022-10-13T01:08:01.568Z,101956.75
2022-10-13T01:10:04.741Z,101957.53
2022-10-13T01:12:38.389Z,101954.06
2022-10-13T01:15:17.730Z,101950.50
2022-10-13T01:17:27.084Z,101941.78
2022-10-13T01:20:16.130Z,101945.41
2022-10-13T01:22:45.787Z,101938.38
2022-10-13T01:24:54.291Z,101939.94
2022-10-13T01:27:14.850Z,101944.22
2022-10-13T01:29:41.282Z,101941.47
2022-10-13T01:32:07.974Z,101933.84
2022-10-13T01:34:34.515Z,101927.47
2022-10-13T01:37:14.351Z,101933.72
2022-10-13T01:39:37.583Z,101927.47
2022-10-13T01:41:42.807Z,101915.19
2022-10-13T01:43:50.946Z,101901.47
2022-10-13T01:46:13.911Z,101918.59
2022-10-13T01:48:17.983Z,101918.59
2022-10-13T01:50:20.806Z,101917.03
2022-10-13T01:52:26.466Z,101919.28
2022-10-13T01:54:28.179Z,101921.56
2022-10-13T01:56:30.028Z,101917.91
2022-10-13T01:58:34.442Z,101922.16
2022-10-13T02:00:43.553Z,101904.09
2022-10-13T02:03:11.370Z,101919.53
2022-10-13T02:05:54.922Z,101911.91
2022-10-13T02:08:08.192Z,101910.94
2022-10-13T02:10:24.886Z,101910.03
2022-10-13T02:12:49.662Z,101882.06
2022-10-13T02:14:54.966Z,101903.69
2022-10-13T02:17:00.323Z,101904.03
2022-10-13T02:19:04.505Z,101901.28
2022-10-13T02:21:06.495Z,101903.16
2022-10-13T02:23:12.803Z,101895.38
2022-10-13T02:25:14.522Z,101901.16
2022-10-13T02:27:16.428Z,101902.91
2022-10-13T02:29:18.682Z,101900.22
2022-10-13T02:31:20.409Z,101894.06
2022-10-13T02:33:22.182Z,101894.59
2022-10-13T02:35:24.154Z,101894.38
2022-10-13T02:37:25.948Z,101883.41
2022-10-13T02:39:27.775Z,101894.19
2022-10-13T02:41:29.612Z,101889.94
2022-10-13T02:43:32.195Z,101888.66
2022-10-13T02:45:34.108Z,101894.50
2022-10-13T02:47:35.960Z,101889.41
2022-10-13T02:49:37.632Z,101886.78
2022-10-13T02:51:40.577Z,101895.28
2022-10-13T02:53:42.523Z,101897.22
2022-10-13T02:55:44.220Z,101884.63
2022-10-13T02:57:46.115Z,101892.81
2022-10-13T02:59:47.903Z,101892.66
2022-10-13T03:01:49.599Z,101891.97
2022-10-13T03:03:51.582Z,101888.34
2022-10-13T03:05:53.341Z,101895.28
2022-10-13T03:07:55.039Z,101891.88
2022-10-13T03:09:56.819Z,101893.81
2022-10-13T03:11:58.734Z,101884.78
2022-10-13T03:14:00.504Z,101887.94
2022-10-13T03:16:02.375Z,101889.25
2022-10-13T03:18:04.331Z,101889.25
2022-10-13T03:20:06.810Z,101893.72
2022-10-13T03:22:08.733Z,101891.28
2022-10-13T03:24:10.627Z,101889.66
2022-10-13T03:26:12.335Z,101883.06
2022-10-13T03:28:14.245Z,101888.31
2022-10-13T03:30:16.143Z,101892.84
2022-10-13T03:32:18.660Z,101883.81
2022-10-13T03:34:20.779Z,101890.91
2022-10-13T03:36:22.690Z,101882.31
2022-10-13T03:38:24.405Z,101891.06
2022-10-13T03:40:26.184Z,101886.81
2022-10-13T03:42:28.147Z,101890.66
2022-10-13T03:44:29.958Z,101889.22
2022-10-13T03:46:32.277Z,101897.47
2022-10-13T03:48:36.530Z,101893.06
2022-10-13T03:50:38.219Z,101889.47
2022-10-13T03:52:40.000Z,101890.19
2022-10-13T03:54:41.908Z,101888.69
2022-10-13T03:56:43.597Z,101891.53
2022-10-13T03:58:45.581Z,101883.88
2022-10-13T04:00:47.787Z,101885.75
2022-10-13T04:02:49.608Z,101885.44
2022-10-13T04:04:51.482Z,101882.16
2022-10-13T04:06:53.246Z,101886.16
2022-10-13T04:08:55.645Z,101883.47
2022-10-13T04:11:06.859Z,101888.72
2022-10-13T04:13:08.843Z,101895.72
2022-10-13T04:15:10.803Z,101890.56
2022-10-13T04:17:12.468Z,101893.31
2022-10-13T04:19:15.692Z,101879.72
2022-10-13T04:21:17.510Z,101883.13
2022-10-13T04:23:19.197Z,101894.94
2022-10-13T04:25:20.917Z,101891.53
2022-10-13T04:27:22.670Z,101887.38
2022-10-13T04:29:24.619Z,101878.44
2022-10-13T04:31:29.068Z,101883.31
2022-10-13T04:33:31.238Z,101888.28
2022-10-13T04:35:33.439Z,101883.97
2022-10-13T04:37:35.414Z,101883.19
2022-10-13T04:39:37.095Z,101880.84
2022-10-13T04:41:38.865Z,101888.06
2022-10-13T04:43:41.356Z,101881.28
2022-10-13T04:45:43.164Z,101878.38
2022-10-13T04:47:45.119Z,101880.56
2022-10-13T04:49:46.951Z,101883.31
2022-10-13T04:51:48.725Z,101880.91
2022-10-13T04:53:55.263Z,101875.25
2022-10-13T04:56:00.897Z,101876.81
2022-10-13T04:58:02.698Z,101876.81
2022-10-13T05:00:05.822Z,101877.50
2022-10-13T05:02:07.749Z,101873.97
2022-10-13T05:04:10.994Z,101863.91
2022-10-13T05:06:24.615Z,101877.09
2022-10-13T05:08:26.396Z,101882.19
2022-10-13T05:10:32.511Z,101875.25
2022-10-13T05:12:36.654Z,101877.88
2022-10-13T05:14:38.502Z,101884.59
2022-10-13T05:16:40.194Z,101887.44
2022-10-13T05:18:42.164Z,101886.38
2022-10-13T05:20:44.152Z,101886.44
2022-10-13T05:22:45.841Z,101877.75
2022-10-13T05:24:47.600Z,101891.19
2022-10-13T05:26:49.556Z,101888.19
2022-10-13T05:28:51.278Z,101884.88
2022-10-13T05:30:53.086Z,101882.88
2022-10-13T05:32:54.924Z,101886.34
2022-10-13T05:34:56.610Z,101890.38
2022-10-13T05:36:59.526Z,101887.22
2022-10-13T05:39:05.585Z,101895.94
2022-10-13T05:41:12.011Z,101891.25
2022-10-13T05:43:13.865Z,101893.28
2022-10-13T05:45:15.854Z,101890.00
2022-10-13T05:47:17.535Z,101887.53
2022-10-13T05:49:19.375Z,101890.63
2022-10-13T05:51:24.725Z,101894.03
2022-10-13T05:53:31.206Z,101874.41
2022-10-13T05:55:32.993Z,101888.78
2022-10-13T05:57:41.634Z,101892.94
2022-10-13T05:59:57.063Z,101893.66
2022-10-13T06:01:59.159Z,101898.13
2022-10-13T06:04:05.888Z,101893.28
2022-10-13T06:06:08.649Z,101889.25
2022-10-13T06:08:10.418Z,101877.59
2022-10-13T06:10:12.931Z,101886.16
2022-10-13T06:12:14.647Z,101880.06
2022-10-13T06:14:16.566Z,101885.16
2022-10-13T06:16:18.565Z,101884.94
2022-10-13T06:18:20.304Z,101873.56
2022-10-13T06:20:22.180Z,101880.13
2022-10-13T06:22:24.080Z,101887.59
2022-10-13T06:24:25.873Z,101882.88
2022-10-13T06:26:27.555Z,101881.72
2022-10-13T06:28:29.717Z,101885.81
2022-10-13T06:30:31.437Z,101885.34
2022-10-13T06:32:33.253Z,101878.31
2022-10-13T06:34:35.098Z,101881.06
2022-10-13T06:36:36.779Z,101884.22
2022-10-13T06:38:38.460Z,101882.03
2022-10-13T06:40:40.723Z,101878.06
2022-10-13T06:42:42.609Z,101881.47
2022-10-13T06:44:44.295Z,101878.59
2022-10-13T06:46:46.208Z,101880.00
2022-10-13T06:48:51.133Z,101879.66
2022-10-13T06:50:52.986Z,101876.16
2022-10-13T06:52:56.122Z,101873.72
2022-10-13T06:54:57.840Z,101873.91
2022-10-13T06:56:59.628Z,101871.78
2022-10-13T06:59:01.874Z,101867.59
2022-10-13T07:01:05.001Z,101863.66
2022-10-13T07:03:06.803Z,101864.06
2022-10-13T07:05:09.022Z,101866.97
2022-10-13T07:07:10.699Z,101861.81
2022-10-13T07:09:12.410Z,101856.53
2022-10-13T07:11:16.503Z,101850.09
2022-10-13T07:13:18.469Z,101837.13
2022-10-13T07:15:20.261Z,101861.63
2022-10-13T07:17:22.895Z,101854.69
2022-10-13T07:19:24.916Z,101859.78
2022-10-13T07:21:26.681Z,101854.94
2022-10-13T07:23:29.337Z,101857.25
2022-10-13T07:25:31.175Z,101860.03
2022-10-13T07:27:32.871Z,101860.66
2022-10-13T07:29:35.180Z,101843.19
2022-10-13T07:31:36.959Z,101854.41
2022-10-13T07:33:39.427Z,101857.66
2022-10-13T07:35:41.666Z,101846.63
2022-10-13T07:37:43.391Z,101849.88
2022-10-13T07:39:45.091Z,101852.16
2022-10-13T07:41:50.892Z,101851.69
2022-10-13T07:43:57.168Z,101846.91
2022-10-13T07:46:00.507Z,101850.25
2022-10-13T07:48:02.521Z,101841.09
2022-10-13T07:50:04.690Z,101837.97
2022-10-13T07:52:06.398Z,101845.16
2022-10-13T07:54:08.430Z,101837.06
2022-10-13T07:56:12.121Z,101843.38
2022-10-13T07:58:13.685Z,101833.19
2022-10-13T08:00:15.760Z,101841.34
2022-10-13T08:02:17.732Z,101834.06
2022-10-13T08:04:19.717Z,101828.06
2022-10-13T08:06:21.738Z,101829.28
2022-10-13T08:08:23.455Z,101827.31
2022-10-13T08:10:25.892Z,101823.31
2022-10-13T08:12:27.895Z,101816.34
2022-10-13T08:14:31.055Z,101818.25
2022-10-13T08:16:33.014Z,101812.13
2022-10-13T08:18:35.101Z,101816.81
2022-10-13T08:20:43.381Z,101803.16
2022-10-13T08:22:45.428Z,101812.25
2022-10-13T08:24:47.703Z,101806.44
2022-10-13T08:26:49.660Z,101807.88
2022-10-13T08:29:09.519Z,101806.19
2022-10-13T08:31:14.005Z,101807.75
2022-10-13T08:33:15.831Z,101802.41
2022-10-13T08:35:17.536Z,101800.47
2022-10-13T08:37:20.023Z,101790.19
2022-10-13T08:39:23.145Z,101800.16
2022-10-13T08:41:28.789Z,101797.63
2022-10-13T08:43:30.921Z,101802.69
2022-10-13T08:45:41.801Z,101796.13
2022-10-13T08:47:47.604Z,101791.41
2022-10-13T08:49:50.149Z,101793.13
2022-10-13T08:51:54.494Z,101788.66
2022-10-13T08:53:56.413Z,101789.91
2022-10-13T08:56:02.936Z,101785.59
2022-10-13T08:58:12.966Z,101781.63
2022-10-13T09:00:14.804Z,101787.88
2022-10-13T09:02:25.257Z,101787.59
2022-10-13T09:04:35.152Z,101778.25
2022-10-13T09:06:42.639Z,101782.47
2022-10-13T09:08:53.209Z,101777.72
2022-10-13T09:10:54.964Z,101774.91
2022-10-13T09:12:56.681Z,101773.34
2022-10-13T09:15:05.315Z,101772.97
2022-10-13T09:17:20.750Z,101767.31
2022-10-13T09:19:32.015Z,101765.94
2022-10-13T09:21:34.246Z,101757.34
2022-10-13T09:23:39.522Z,101750.91
2022-10-13T09:25:49.763Z,101759.69
2022-10-13T09:27:53.271Z,101756.72
2022-10-13T09:29:55.060Z,101750.16
2022-10-13T09:32:35.225Z,101747.28
2022-10-13T09:34:37.131Z,101745.88
2022-10-13T09:36:38.933Z,101745.00
2022-10-13T09:38:44.189Z,101738.69
2022-10-13T09:40:57.303Z,101733.94
2022-10-13T09:43:01.091Z,101735.03
2022-10-13T09:45:14.688Z,101738.69
2022-10-13T09:47:21.582Z,101739.66
2022-10-13T09:49:29.862Z,101731.66
2022-10-13T09:51:42.931Z,101729.69
2022-10-13T09:53:47.684Z,101719.28
2022-10-13T09:55:49.462Z,101717.81
2022-10-13T09:57:53.615Z,101723.91
2022-10-13T10:00:25.594Z,101723.06
2022-10-13T10:02:45.094Z,101708.91
2022-10-13T10:04:47.326Z,101714.59
2022-10-13T10:06:49.414Z,101686.75
2022-10-13T10:09:31.130Z,101693.56
2022-10-13T10:11:45.828Z,101690.88
2022-10-13T10:13:50.245Z,101684.03
2022-10-13T10:15:57.607Z,101685.06
2022-10-13T10:18:07.625Z,101679.69
2022-10-13T10:20:40.941Z,101671.81
2022-10-13T10:23:00.971Z,101667.69
2022-10-13T10:25:28.820Z,101674.22
2022-10-13T10:27:43.824Z,101672.09
2022-10-13T10:29:50.441Z,101680.22
2022-10-13T10:32:20.918Z,101674.06
2022-10-13T10:34:34.073Z,101658.41
2022-10-13T10:36:50.656Z,101667.31
2022-10-13T10:38:56.121Z,101660.47
2022-10-13T10:41:22.872Z,101667.63
2022-10-13T10:43:48.586Z,101662.59
2022-10-13T10:45:50.286Z,101658.94
2022-10-13T10:47:57.064Z,101661.06
2022-10-13T10:50:03.615Z,101662.38
2022-10-13T10:52:11.169Z,101657.47
2022-10-13T10:54:37.959Z,101658.06
2022-10-13T10:56:44.783Z,101653.97
2022-10-13T10:58:58.689Z,101651.38
2022-10-13T11:01:15.299Z,101644.22
2022-10-13T11:03:55.134Z,101651.44
2022-10-13T11:06:02.722Z,101654.66
2022-10-13T11:08:04.796Z,101651.91
2022-10-13T11:10:15.885Z,101638.09
2022-10-13T11:12:21.091Z,101643.28
2022-10-13T11:14:30.096Z,101625.19
2022-10-13T11:16:59.401Z,101625.47
2022-10-13T11:19:36.420Z,101621.34
2022-10-13T11:22:11.315Z,101621.16
2022-10-13T11:24:41.673Z,101616.94
2022-10-13T11:26:43.914Z,101602.13
2022-10-13T11:28:47.090Z,101614.81
2022-10-13T11:31:05.206Z,101608.84
2022-10-13T11:33:31.659Z,101613.13
2022-10-13T11:35:33.430Z,101615.41
2022-10-13T11:38:06.867Z,101612.16
2022-10-13T11:40:31.289Z,101605.97
2022-10-13T11:42:38.582Z,101602.91
2022-10-13T11:44:59.838Z,101598.25
2022-10-13T11:47:30.636Z,101596.41
2022-10-13T11:49:50.717Z,101591.22
2022-10-13T11:52:10.915Z,101594.81
2022-10-13T11:54:39.718Z,101588.13
2022-10-13T11:56:55.744Z,101578.34
2022-10-13T11:58:57.575Z,101576.88
2022-10-13T12:01:04.947Z,101580.06
2022-10-13T12:03:20.798Z,101579.34
2022-10-13T12:05:27.064Z,101583.25
2022-10-13T12:07:34.432Z,101568.03
2022-10-13T12:09:55.229Z,101580.50
2022-10-13T12:12:12.952Z,101570.31
2022-10-13T12:14:25.226Z,101573.00
2022-10-13T12:16:28.466Z,101564.28
2022-10-13T12:18:38.903Z,101561.06
2022-10-13T12:20:40.595Z,101560.09
2022-10-13T12:22:48.278Z,101549.41
2022-10-13T12:25:01.901Z,101557.31
2022-10-13T12:27:17.546Z,101561.91
2022-10-13T12:29:25.634Z,101558.06
2022-10-13T12:31:38.618Z,101555.19
2022-10-13T12:33:40.295Z,101546.72
2022-10-13T12:35:42.246Z,101544.22
2022-10-13T12:37:44.712Z,101549.53
2022-10-13T12:39:46.601Z,101544.91
2022-10-13T12:41:49.497Z,101530.78
2022-10-13T12:43:51.787Z,101524.59
2022-10-13T12:45:53.635Z,101527.41
2022-10-13T12:47:55.822Z,101523.50
2022-10-13T12:50:25.151Z,101520.28
2022-10-13T12:52:27.369Z,101525.13
2022-10-13T12:54:31.988Z,101519.72
2022-10-13T12:56:34.237Z,101523.84
2022-10-13T12:58:36.379Z,101525.72
2022-10-13T13:00:38.362Z,101516.09
2022-10-13T13:02:40.548Z,101521.75
2022-10-13T13:04:43.844Z,101505.41
2022-10-13T13:07:00.332Z,101516.41
2022-10-13T13:09:22.264Z,101515.13
2022-10-13T13:11:34.251Z,101516.34
2022-10-13T13:13:36.147Z,101512.78
2022-10-13T13:15:38.919Z,101513.00
2022-10-13T13:20:18.493Z,101502.81
2022-10-13T13:22:20.554Z,101508.44
2022-10-13T13:24:36.105Z,101499.22
2022-10-13T13:26:41.416Z,101492.97
2022-10-13T13:28:45.496Z,101488.00
2022-10-13T13:30:47.424Z,101486.03
2022-10-13T13:32:50.055Z,101481.25
2022-10-13T13:34:51.850Z,101476.88
2022-10-13T13:36:53.911Z,101476.81
2022-10-13T13:38:55.657Z,101484.41
2022-10-13T13:41:00.109Z,101474.44
2022-10-13T13:43:05.152Z,101456.66
2022-10-13T13:45:07.279Z,101480.00
2022-10-13T13:47:16.033Z,101472.69
2022-10-13T13:49:17.816Z,101470.03
2022-10-13T13:51:19.599Z,101468.19
2022-10-13T13:53:21.564Z,101462.34
2022-10-13T13:55:23.507Z,101466.19
2022-10-13T13:57:25.193Z,101477.44
2022-10-13T13:59:26.938Z,101465.38
2022-10-13T14:01:28.946Z,101472.53
2022-10-13T14:03:30.773Z,101468.03
2022-10-13T14:05:32.641Z,101457.59
2022-10-13T14:07:34.668Z,101447.31
2022-10-13T14:09:36.562Z,101452.84
2022-10-13T14:11:38.379Z,101455.53
2022-10-13T14:13:40.262Z,101447.13
2022-10-13T14:15:41.966Z,101457.94
2022-10-13T14:17:43.832Z,101447.31
2022-10-13T14:19:45.643Z,101450.81
2022-10-13T14:21:47.321Z,101461.25
2022-10-13T14:23:49.076Z,101452.31
2022-10-13T14:25:50.845Z,101456.25
2022-10-13T14:27:52.564Z,101452.75
2022-10-13T14:29:54.448Z,101457.13
2022-10-13T14:31:56.353Z,101460.50
2022-10-13T14:33:58.194Z,101456.97
2022-10-13T14:36:01.959Z,101442.25
2022-10-13T14:38:03.686Z,101461.16
2022-10-13T14:40:05.903Z,101459.81
2022-10-13T14:42:08.114Z,101455.59
2022-10-13T14:44:12.087Z,101454.69
2022-10-13T14:46:14.023Z,101452.66
2022-10-13T14:48:15.845Z,101450.81
2022-10-13T14:50:17.872Z,101451.19
2022-10-13T14:52:19.606Z,101455.38
2022-10-13T14:54:26.401Z,101455.59
2022-10-13T14:56:30.314Z,101453.00
2022-10-13T14:58:32.026Z,101450.97
2022-10-13T15:00:33.818Z,101448.06
2022-10-13T15:02:35.785Z,101445.69
2022-10-13T15:04:37.494Z,101451.94
2022-10-13T15:06:40.422Z,101449.91
2022-10-13T15:08:42.866Z,101453.03
2022-10-13T15:10:44.687Z,101450.97
2022-10-13T15:12:46.572Z,101445.84
2022-10-13T15:14:48.332Z,101452.56
2022-10-13T15:16:50.025Z,101455.00
2022-10-13T15:18:52.301Z,101453.31
2022-10-13T15:20:54.291Z,101454.53
2022-10-13T15:22:56.125Z,101445.34
2022-10-13T15:24:57.982Z,101433.34
2022-10-13T15:27:00.244Z,101442.34
2022-10-13T15:29:01.986Z,101438.44
2022-10-13T15:31:05.198Z,101428.94
2022-10-13T15:33:06.966Z,101435.13
2022-10-13T15:35:08.818Z,101424.47
2022-10-13T15:37:11.099Z,101425.22
2022-10-13T15:39:12.949Z,101424.38
2022-10-13T15:41:14.871Z,101419.91
2022-10-13T15:43:17.593Z,101424.03
2022-10-13T15:45:19.546Z,101416.25
2022-10-13T15:47:21.412Z,101416.97
2022-10-13T15:49:24.750Z,101418.06
2022-10-13T15:51:26.620Z,101422.84
2022-10-13T15:53:30.103Z,101413.59
2022-10-13T15:55:32.743Z,101417.69
2022-10-13T15:57:34.799Z,101417.56
2022-10-13T15:59:36.527Z,101407.63
2022-10-13T16:01:38.418Z,101408.19
2022-10-13T16:03:40.766Z,101404.53
2022-10-13T16:05:43.725Z,101405.81
2022-10-13T16:07:45.626Z,101403.16
2022-10-13T16:09:47.536Z,101401.63
2022-10-13T16:11:49.211Z,101408.06
2022-10-13T16:13:52.577Z,101405.53
2022-10-13T16:16:01.534Z,101411.94
2022-10-13T16:18:03.385Z,101399.88
2022-10-13T16:20:06.503Z,101408.56
2022-10-13T16:22:08.609Z,101406.59
2022-10-13T16:24:10.299Z,101413.44
2022-10-13T16:26:12.453Z,101400.56
2022-10-13T16:28:14.471Z,101417.94
2022-10-13T16:30:16.321Z,101415.63
2022-10-13T16:32:18.413Z,101418.25
2022-10-13T16:34:20.574Z,101408.13
2022-10-13T16:36:22.402Z,101405.81
2022-10-13T16:38:24.405Z,101403.78
2022-10-13T16:40:26.666Z,101399.59
2022-10-13T16:42:28.368Z,101398.63
2022-10-13T16:44:30.937Z,101401.41
2022-10-13T16:46:32.761Z,101403.22
2022-10-13T16:48:34.959Z,101407.88
2022-10-13T16:50:38.298Z,101396.63
2022-10-13T16:52:40.148Z,101389.38
2022-10-13T16:54:41.917Z,101390.97
2022-10-13T16:56:44.077Z,101396.34
2022-10-13T16:58:45.981Z,101394.53
2022-10-13T17:00:47.860Z,101398.47
2022-10-13T17:02:50.007Z,101396.00
2022-10-13T17:04:51.829Z,101388.03
2022-10-13T17:06:53.674Z,101401.44
2022-10-13T17:08:58.131Z,101400.31
2022-10-13T17:11:00.518Z,101395.78
2022-10-13T17:13:02.199Z,101397.22
2022-10-13T17:15:04.501Z,101398.31
2022-10-13T17:17:06.217Z,101405.41
2022-10-13T17:19:07.961Z,101399.78
2022-10-13T17:21:12.581Z,101402.09
2022-10-13T17:23:14.246Z,101396.47
2022-10-13T17:25:16.086Z,101386.63
2022-10-13T17:27:18.498Z,101396.75
2022-10-13T17:29:20.370Z,101389.06
2022-10-13T17:31:23.817Z,101393.50
2022-10-13T17:33:27.411Z,101388.44
2022-10-13T17:35:31.297Z,101391.72
2022-10-13T17:37:33.072Z,101389.34
2022-10-13T17:39:34.943Z,101396.09
2022-10-13T17:41:37.463Z,101398.28
2022-10-13T17:43:41.026Z,101394.81
2022-10-13T17:45:43.090Z,101385.53
2022-10-13T17:47:49.024Z,101370.63
2022-10-13T17:49:50.829Z,101388.03
2022-10-13T17:51:53.918Z,101394.44
2022-10-13T17:53:58.620Z,101390.34
2022-10-13T17:56:02.242Z,101391.28
2022-10-13T17:58:04.990Z,101397.53
2022-10-13T18:00:07.639Z,101395.34
2022-10-13T18:02:10.298Z,101394.56
2022-10-13T18:04:16.013Z,101386.53
2022-10-13T18:06:18.506Z,101389.06
2022-10-13T18:08:20.204Z,101390.97
2022-10-13T18:10:22.158Z,101387.25
2022-10-13T18:12:23.896Z,101398.47
2022-10-13T18:14:25.633Z,101392.94
2022-10-13T18:16:27.616Z,101390.31
2022-10-13T18:18:29.464Z,101385.50
2022-10-13T18:20:31.568Z,101388.06
2022-10-13T18:22:33.396Z,101388.53
2022-10-13T18:24:35.131Z,101381.41
2022-10-13T18:26:36.887Z,101382.72
2022-10-13T18:28:40.140Z,101383.56
2022-10-13T18:30:41.901Z,101383.31
2022-10-13T18:32:43.594Z,101385.59
2022-10-13T18:34:45.465Z,101386.63
2022-10-13T18:36:49.292Z,101385.16
2022-10-13T18:38:52.121Z,101393.44
2022-10-13T18:40:59.157Z,101391.56
2022-10-13T18:43:00.880Z,101388.75
2022-10-13T18:45:02.583Z,101383.19
2022-10-13T18:47:04.543Z,101382.03
2022-10-13T18:49:08.173Z,101388.25
2022-10-13T18:51:12.942Z,101389.13
2022-10-13T18:53:14.880Z,101383.91
2022-10-13T18:55:16.597Z,101383.50
2022-10-13T18:57:18.533Z,101383.91
2022-10-13T18:59:20.879Z,101334.41
2022-10-13T19:01:24.883Z,101379.28
2022-10-13T19:03:26.648Z,101376.56
2022-10-13T19:05:28.683Z,101374.84
2022-10-13T19:07:30.399Z,101375.84
2022-10-13T19:09:32.151Z,101363.59
2022-10-13T19:11:35.037Z,101375.78
2022-10-13T19:13:36.867Z,101368.38
2022-10-13T19:15:38.794Z,101357.25
2022-10-13T19:17:40.810Z,101376.53
2022-10-13T19:19:42.526Z,101368.81
2022-10-13T19:21:44.255Z,101371.25
2022-10-13T19:23:46.093Z,101368.63
2022-10-13T19:25:48.201Z,101372.41
2022-10-13T19:27:49.907Z,101366.41
2022-10-13T19:29:52.699Z,101362.94
2022-10-13T19:31:54.444Z,101367.38
2022-10-13T19:33:56.658Z,101367.25
2022-10-13T19:35:58.491Z,101367.38
2022-10-13T19:38:00.226Z,101372.53
2022-10-13T19:40:02.005Z,101374.44
2022-10-13T19:42:04.056Z,101373.38
2022-10-13T19:44:05.934Z,101371.06
2022-10-13T19:46:08.394Z,101369.19
2022-10-13T19:48:10.872Z,101376.28
2022-10-13T19:50:12.758Z,101364.69
2022-10-13T19:52:14.565Z,101367.56
2022-10-13T19:54:17.674Z,101365.66
2022-10-13T19:56:28.711Z,101363.25
2022-10-13T19:58:30.511Z,101358.38
2022-10-13T20:00:32.843Z,101358.06
2022-10-13T20:02:34.526Z,101355.22
2022-10-13T20:04:36.294Z,101361.84
2022-10-13T20:06:38.583Z,101354.78
2022-10-13T20:08:40.333Z,101347.28
2022-10-13T20:10:43.493Z,101349.63
2022-10-13T20:12:45.335Z,101350.47
2022-10-13T20:14:47.071Z,101353.09
2022-10-13T20:16:48.978Z,101348.22
2022-10-13T20:18:53.159Z,101351.72
2022-10-13T20:20:54.935Z,101355.94
2022-10-13T20:22:56.632Z,101356.88
2022-10-13T20:24:58.786Z,101354.00
2022-10-13T20:27:00.498Z,101349.69
2022-10-13T20:29:02.251Z,101353.06
2022-10-13T20:31:05.312Z,101350.53
2022-10-13T20:33:07.043Z,101350.75
2022-10-13T20:35:08.969Z,101356.13
2022-10-13T20:37:11.012Z,101353.69
2022-10-13T20:39:12.978Z,101349.28
2022-10-13T20:41:19.252Z,101362.56
2022-10-13T20:43:24.929Z,101347.06
2022-10-13T20:45:27.419Z,101341.94
2022-10-13T20:47:29.124Z,101333.81
2022-10-13T20:49:30.888Z,101333.59
2022-10-13T20:51:32.633Z,101347.53
2022-10-13T20:53:36.554Z,101340.56
2022-10-13T20:55:41.845Z,101345.22
2022-10-13T20:57:43.804Z,101339.19
2022-10-13T20:59:45.534Z,101339.81
2022-10-13T21:01:47.370Z,101330.84
2022-10-13T21:03:55.940Z,101332.94
2022-10-13T21:05:57.721Z,101342.13
2022-10-13T21:07:59.484Z,101335.06
2022-10-13T21:10:01.170Z,101341.59
2022-10-13T21:12:02.892Z,101340.97
2022-10-13T21:14:05.220Z,101290.47
2022-10-13T21:16:18.296Z,101339.88
2022-10-13T21:18:19.991Z,101341.06
2022-10-13T21:20:21.891Z,101345.38
2022-10-13T21:22:23.677Z,101339.88
2022-10-13T21:24:25.416Z,101337.34
2022-10-13T21:26:29.428Z,101345.16
2022-10-13T21:28:32.206Z,101311.63
2022-10-13T21:30:34.283Z,101337.13
2022-10-13T21:32:36.267Z,101338.41
2022-10-13T21:34:37.992Z,101336.53
2022-10-13T21:36:39.670Z,101326.63
2022-10-13T21:38:45.096Z,101325.19
2022-10-13T21:40:49.398Z,101321.38
2022-10-13T21:42:54.753Z,101326.66
2022-10-13T21:44:56.634Z,101322.75
2022-10-13T21:46:58.335Z,101326.13
2022-10-13T21:49:02.406Z,101325.28
2022-10-13T21:51:19.499Z,101319.16
2022-10-13T21:53:21.185Z,101317.06
2022-10-13T21:55:23.289Z,101316.13
2022-10-13T21:57:25.307Z,101313.47
2022-10-13T21:59:27.145Z,101318.81
2022-10-13T22:01:29.268Z,101295.34
2022-10-13T22:03:31.241Z,101314.28
2022-10-13T22:05:35.100Z,101301.84
2022-10-13T22:07:36.834Z,101308.22
2022-10-13T22:09:38.826Z,101319.25
2022-10-13T22:11:41.257Z,101311.66
2022-10-13T22:13:43.111Z,101316.41
2022-10-13T22:15:44.955Z,101306.72
2022-10-13T22:17:46.683Z,101308.91
2022-10-13T22:19:48.366Z,101287.13
2022-10-13T22:21:50.419Z,101310.59
2022-10-13T22:23:52.165Z,101301.00
2022-10-13T22:25:53.852Z,101297.34
2022-10-13T22:27:55.539Z,101300.91
2022-10-13T22:29:57.254Z,101296.50
2022-10-13T22:31:58.999Z,101284.16
2022-10-13T22:34:01.715Z,101290.91
2022-10-13T22:36:12.245Z,101294.38
2022-10-13T22:38:14.621Z,101286.25
2022-10-13T22:40:16.728Z,101281.91
2022-10-13T22:42:18.472Z,101293.09
2022-10-13T22:44:20.215Z,101285.09
2022-10-13T22:46:24.325Z,101290.38
2022-10-13T22:48:26.072Z,101287.09
2022-10-13T22:50:27.955Z,101281.72
2022-10-13T22:52:29.859Z,101286.78
2022-10-13T22:54:31.548Z,101284.34
2022-10-13T22:56:34.192Z,101282.75
2022-10-13T22:58:36.604Z,101281.91
2022-10-13T23:00:39.136Z,101275.50
2022-10-13T23:02:40.821Z,101276.16
2022-10-13T23:04:42.755Z,101275.41
2022-10-13T23:06:44.494Z,101277.72
2022-10-13T23:08:46.210Z,101276.03
2022-10-13T23:10:48.193Z,101272.03
2022-10-13T23:12:49.909Z,101282.81
2022-10-13T23:14:51.585Z,101276.59
2022-10-13T23:16:53.645Z,101276.38
2022-10-13T23:18:55.689Z,101268.91
2022-10-13T23:20:57.605Z,101279.41
2022-10-13T23:22:59.504Z,101275.09
2022-10-13T23:25:01.175Z,101277.22
2022-10-13T23:27:03.095Z,101269.53
2022-10-13T23:29:05.354Z,101261.72
2022-10-13T23:31:10.789Z,101259.19
2022-10-13T23:33:12.554Z,101266.59
2022-10-13T23:35:14.344Z,101265.75
2022-10-13T23:37:16.063Z,101259.19
2022-10-13T23:39:18.034Z,101265.53
2022-10-13T23:41:19.935Z,101256.69
2022-10-13T23:43:21.949Z,101262.81
2022-10-13T23:45:23.690Z,101257.53
2022-10-13T23:47:25.479Z,101253.50